sensor_id;sensor_type;location;lat;lon;timestamp;pressure;altitude;pressure_sealevel;temperature;humidity
46408;BME280;32110;45.724;21.276;2023-05-22T02:19:36;100370.66;;;12.41;nan
46408;BME280;32110;45.724;21.276;2023-05-22T06:12:41;100429.28;;;16.72;nan
46408;BME280;32110;45.724;21.276;2023-05-22T06:32:12;100443.13;;;17.20;nan
46408;BME280;32110;45.724;21.276;2023-05-22T06:39:29;100419.66;;;17.48;nan
46408;BME280;32110;45.724;21.276;2023-05-22T07:37:48;100389.31;;;19.46;nan
46408;BME280;32110;45.724;21.276;2023-05-22T07:42:39;100381.84;;;19.67;nan
46408;BME280;32110;45.724;21.276;2023-05-22T07:45:05;100381.53;;;19.74;nan
46408;BME280;32110;45.724;21.276;2023-05-22T07:47:30;100380.97;;;19.77;nan
46408;BME280;32110;45.724;21.276;2023-05-22T07:49:55;100381.06;;;19.91;nan
46408;BME280;32110;45.724;21.276;2023-05-22T07:52:21;100396.94;;;20.01;nan
46408;BME280;32110;45.724;21.276;2023-05-22T07:54:47;100386.50;;;20.05;nan
46408;BME280;32110;45.724;21.276;2023-05-22T07:57:13;100384.47;;;20.15;nan
46408;BME280;32110;45.724;21.276;2023-05-22T07:59:39;100371.25;;;20.24;nan
46408;BME280;32110;45.724;21.276;2023-05-22T08:02:07;100381.84;;;20.29;nan
46408;BME280;32110;45.724;21.276;2023-05-22T08:04:34;100426.66;;;20.37;nan
46408;BME280;32110;45.724;21.276;2023-05-22T08:06:59;100370.91;;;20.45;nan
46408;BME280;32110;45.724;21.276;2023-05-22T08:09:25;100383.66;;;20.53;nan
46408;BME280;32110;45.724;21.276;2023-05-22T08:11:51;100422.84;;;20.63;nan
46408;BME280;32110;45.724;21.276;2023-05-22T08:14:16;100378.72;;;20.79;nan
46408;BME280;32110;45.724;21.276;2023-05-22T08:16:42;100374.38;;;20.83;nan
46408;BME280;32110;45.724;21.276;2023-05-22T08:19:07;100377.34;;;20.95;nan
46408;BME280;32110;45.724;21.276;2023-05-22T08:21:32;100448.94;;;21.03;nan
46408;BME280;32110;45.724;21.276;2023-05-22T08:23:59;100364.47;;;20.97;nan
46408;BME280;32110;45.724;21.276;2023-05-22T08:26:28;100451.34;;;21.19;nan
46408;BME280;32110;45.724;21.276;2023-05-22T08:28:53;100391.28;;;21.25;nan
46408;BME280;32110;45.724;21.276;2023-05-22T08:31:18;100384.41;;;21.33;nan
46408;BME280;32110;45.724;21.276;2023-05-22T08:33:44;100416.56;;;21.33;nan
46408;BME280;32110;45.724;21.276;2023-05-22T08:36:09;100436.53;;;21.40;nan
46408;BME280;32110;45.724;21.276;2023-05-22T08:38:35;100378.22;;;21.51;nan
46408;BME280;32110;45.724;21.276;2023-05-22T08:41:01;100382.84;;;21.59;nan
46408;BME280;32110;45.724;21.276;2023-05-22T08:43:26;100345.44;;;21.68;nan
46408;BME280;32110;45.724;21.276;2023-05-22T08:45:59;100367.66;;;21.82;nan
46408;BME280;32110;45.724;21.276;2023-05-22T08:48:29;100363.88;;;21.83;nan
46408;BME280;32110;45.724;21.276;2023-05-22T08:53:23;100357.69;;;21.97;nan
46408;BME280;32110;45.724;21.276;2023-05-22T08:55:51;100358.38;;;22.02;nan
46408;BME280;32110;45.724;21.276;2023-05-22T08:58:17;100403.38;;;22.05;nan
46408;BME280;32110;45.724;21.276;2023-05-22T09:00:43;100363.69;;;22.16;nan
46408;BME280;32110;45.724;21.276;2023-05-22T09:03:09;100353.16;;;22.20;nan
46408;BME280;32110;45.724;21.276;2023-05-22T09:05:38;100364.59;;;22.25;nan
46408;BME280;32110;45.724;21.276;2023-05-22T09:08:05;100365.25;;;22.31;nan
46408;BME280;32110;45.724;21.276;2023-05-22T09:10:32;100386.28;;;22.38;nan
46408;BME280;32110;45.724;21.276;2023-05-22T09:13:08;100374.03;;;22.45;nan
46408;BME280;32110;45.724;21.276;2023-05-22T09:15:35;100378.97;;;22.52;nan
46408;BME280;32110;45.724;21.276;2023-05-22T09:18:04;100369.09;;;22.61;nan
46408;BME280;32110;45.724;21.276;2023-05-22T09:20:37;100356.53;;;22.70;nan
46408;BME280;32110;45.724;21.276;2023-05-22T09:23:11;100362.38;;;22.72;nan
46408;BME280;32110;45.724;21.276;2023-05-22T09:25:40;100363.66;;;22.75;nan
46408;BME280;32110;45.724;21.276;2023-05-22T09:28:07;100354.69;;;22.80;nan
46408;BME280;32110;45.724;21.276;2023-05-22T09:33:02;100353.94;;;22.88;nan
46408;BME280;32110;45.724;21.276;2023-05-22T09:35:30;100396.88;;;22.88;nan
46408;BME280;32110;45.724;21.276;2023-05-22T09:40:22;100389.31;;;22.90;nan
46408;BME280;32110;45.724;21.276;2023-05-22T09:42:47;100363.50;;;23.03;nan
46408;BME280;32110;45.724;21.276;2023-05-22T09:45:13;100341.44;;;23.14;nan
46408;BME280;32110;45.724;21.276;2023-05-22T09:47:38;100392.31;;;23.20;nan
46408;BME280;32110;45.724;21.276;2023-05-22T09:50:05;100349.38;;;23.28;nan
46408;BME280;32110;45.724;21.276;2023-05-22T09:52:33;100355.41;;;23.34;nan
46408;BME280;32110;45.724;21.276;2023-05-22T09:57:27;100341.66;;;23.35;nan
46408;BME280;32110;45.724;21.276;2023-05-22T09:59:55;100393.19;;;23.38;nan
46408;BME280;32110;45.724;21.276;2023-05-22T10:02:24;100333.44;;;23.41;nan
46408;BME280;32110;45.724;21.276;2023-05-22T10:04:50;100335.50;;;23.44;nan
46408;BME280;32110;45.724;21.276;2023-05-22T10:07:23;100368.53;;;23.35;nan
46408;BME280;32110;45.724;21.276;2023-05-22T10:10:06;100331.72;;;23.45;nan
46408;BME280;32110;45.724;21.276;2023-05-22T10:12:36;100360.03;;;23.51;nan
46408;BME280;32110;45.724;21.276;2023-05-22T10:15:05;100280.00;;;23.39;nan
46408;BME280;32110;45.724;21.276;2023-05-22T10:17:31;100317.19;;;23.54;nan
46408;BME280;32110;45.724;21.276;2023-05-22T10:19:57;100292.06;;;23.59;nan
46408;BME280;32110;45.724;21.276;2023-05-22T10:22:24;100282.44;;;23.67;nan
46408;BME280;32110;45.724;21.276;2023-05-22T10:24:53;100324.81;;;23.70;nan
46408;BME280;32110;45.724;21.276;2023-05-22T10:27:19;100278.50;;;23.73;nan
46408;BME280;32110;45.724;21.276;2023-05-22T10:29:59;100318.50;;;23.74;nan
46408;BME280;32110;45.724;21.276;2023-05-22T10:32:41;100299.69;;;23.83;nan
46408;BME280;32110;45.724;21.276;2023-05-22T10:41:02;100319.00;;;23.94;nan
46408;BME280;32110;45.724;21.276;2023-05-22T10:43:29;100342.88;;;23.95;nan
46408;BME280;32110;45.724;21.276;2023-05-22T10:46:06;100291.47;;;24.06;nan
46408;BME280;32110;45.724;21.276;2023-05-22T10:48:39;100286.38;;;24.13;nan
46408;BME280;32110;45.724;21.276;2023-05-22T10:51:06;100333.38;;;24.24;nan
46408;BME280;32110;45.724;21.276;2023-05-22T10:53:33;100302.97;;;24.32;nan
46408;BME280;32110;45.724;21.276;2023-05-22T10:56:08;100298.69;;;24.40;nan
46408;BME280;32110;45.724;21.276;2023-05-22T10:58:34;100291.25;;;24.46;nan
46408;BME280;32110;45.724;21.276;2023-05-22T11:01:13;100274.94;;;24.51;nan
46408;BME280;32110;45.724;21.276;2023-05-22T11:04:09;100272.41;;;24.46;nan
46408;BME280;32110;45.724;21.276;2023-05-22T11:06:46;100249.44;;;24.57;nan
46408;BME280;32110;45.724;21.276;2023-05-22T11:12:27;100262.44;;;24.55;nan
46408;BME280;32110;45.724;21.276;2023-05-22T11:14:57;100254.19;;;24.51;nan
46408;BME280;32110;45.724;21.276;2023-05-22T11:20:02;100240.75;;;24.34;nan
46408;BME280;32110;45.724;21.276;2023-05-22T11:22:32;100244.22;;;24.43;nan
46408;BME280;32110;45.724;21.276;2023-05-22T11:24:58;100235.84;;;24.45;nan
46408;BME280;32110;45.724;21.276;2023-05-22T11:27:24;100219.53;;;24.50;nan
46408;BME280;32110;45.724;21.276;2023-05-22T11:29:49;100247.34;;;24.62;nan
46408;BME280;32110;45.724;21.276;2023-05-22T11:32:16;100236.88;;;24.70;nan
46408;BME280;32110;45.724;21.276;2023-05-22T11:34:47;100261.13;;;24.61;nan
46408;BME280;32110;45.724;21.276;2023-05-22T11:37:16;100233.56;;;24.64;nan
46408;BME280;32110;45.724;21.276;2023-05-22T11:39:49;100252.88;;;24.66;nan
46408;BME280;32110;45.724;21.276;2023-05-22T11:42:17;100232.25;;;24.70;nan
46408;BME280;32110;45.724;21.276;2023-05-22T11:44:42;100236.06;;;24.69;nan
46408;BME280;32110;45.724;21.276;2023-05-22T11:47:08;100249.66;;;24.73;nan
46408;BME280;32110;45.724;21.276;2023-05-22T11:49:33;100270.63;;;24.58;nan
46408;BME280;32110;45.724;21.276;2023-05-22T11:52:09;100221.84;;;24.60;nan
46408;BME280;32110;45.724;21.276;2023-05-22T11:54:35;100254.47;;;24.67;nan
46408;BME280;32110;45.724;21.276;2023-05-22T11:57:07;100218.59;;;24.75;nan
46408;BME280;32110;45.724;21.276;2023-05-22T11:59:33;100229.94;;;24.90;nan
46408;BME280;32110;45.724;21.276;2023-05-22T12:01:58;100234.81;;;24.96;nan
46408;BME280;32110;45.724;21.276;2023-05-22T12:04:24;100248.78;;;24.90;nan
46408;BME280;32110;45.724;21.276;2023-05-22T12:06:50;100221.66;;;24.95;nan
46408;BME280;32110;45.724;21.276;2023-05-22T12:09:16;100235.47;;;24.93;nan
46408;BME280;32110;45.724;21.276;2023-05-22T12:11:45;100245.00;;;24.91;nan
46408;BME280;32110;45.724;21.276;2023-05-22T12:14:11;100292.81;;;24.64;nan
46408;BME280;32110;45.724;21.276;2023-05-22T12:16:37;100229.63;;;24.61;nan
46408;BME280;32110;45.724;21.276;2023-05-22T12:19:06;100230.53;;;24.66;nan
46408;BME280;32110;45.724;21.276;2023-05-22T12:21:32;100217.69;;;24.71;nan
46408;BME280;32110;45.724;21.276;2023-05-22T12:24:02;100283.25;;;24.75;nan
46408;BME280;32110;45.724;21.276;2023-05-22T12:26:28;100226.63;;;24.93;nan
46408;BME280;32110;45.724;21.276;2023-05-22T12:28:53;100176.81;;;24.99;nan
46408;BME280;32110;45.724;21.276;2023-05-22T12:31:22;100249.81;;;25.06;nan
46408;BME280;32110;45.724;21.276;2023-05-22T12:33:51;100295.03;;;25.00;nan
46408;BME280;32110;45.724;21.276;2023-05-22T12:36:17;100241.47;;;24.99;nan
46408;BME280;32110;45.724;21.276;2023-05-22T12:41:08;100221.88;;;24.90;nan
46408;BME280;32110;45.724;21.276;2023-05-22T12:43:33;100234.75;;;24.84;nan
46408;BME280;32110;45.724;21.276;2023-05-22T12:45:59;100222.25;;;24.79;nan
46408;BME280;32110;45.724;21.276;2023-05-22T12:48:24;100240.44;;;24.82;nan
46408;BME280;32110;45.724;21.276;2023-05-22T12:50:51;100216.38;;;24.77;nan
46408;BME280;32110;45.724;21.276;2023-05-22T12:53:17;100211.75;;;24.87;nan
46408;BME280;32110;45.724;21.276;2023-05-22T12:55:43;100216.16;;;24.91;nan
46408;BME280;32110;45.724;21.276;2023-05-22T12:58:09;100210.13;;;24.94;nan
46408;BME280;32110;45.724;21.276;2023-05-22T13:00:34;100217.88;;;24.96;nan
46408;BME280;32110;45.724;21.276;2023-05-22T13:03:00;100224.06;;;24.96;nan
46408;BME280;32110;45.724;21.276;2023-05-22T13:05:26;100215.47;;;25.03;nan
46408;BME280;32110;45.724;21.276;2023-05-22T13:07:51;100229.88;;;25.07;nan
46408;BME280;32110;45.724;21.276;2023-05-22T13:10:17;100219.25;;;25.02;nan
46408;BME280;32110;45.724;21.276;2023-05-22T13:12:43;100264.88;;;25.07;nan
46408;BME280;32110;45.724;21.276;2023-05-22T13:15:11;100221.44;;;25.09;nan
46408;BME280;32110;45.724;21.276;2023-05-22T13:17:38;100203.72;;;25.08;nan
46408;BME280;32110;45.724;21.276;2023-05-22T13:20:03;100215.66;;;24.98;nan
46408;BME280;32110;45.724;21.276;2023-05-22T13:22:29;100204.91;;;24.89;nan
46408;BME280;32110;45.724;21.276;2023-05-22T13:24:54;100213.50;;;24.82;nan
46408;BME280;32110;45.724;21.276;2023-05-22T13:27:20;100197.34;;;24.82;nan
46408;BME280;32110;45.724;21.276;2023-05-22T13:29:45;100196.44;;;24.78;nan
46408;BME280;32110;45.724;21.276;2023-05-22T13:32:11;100211.00;;;24.77;nan
46408;BME280;32110;45.724;21.276;2023-05-22T13:34:38;100197.53;;;24.77;nan
46408;BME280;32110;45.724;21.276;2023-05-22T13:37:04;100186.16;;;24.72;nan
46408;BME280;32110;45.724;21.276;2023-05-22T13:39:29;100180.28;;;24.78;nan
46408;BME280;32110;45.724;21.276;2023-05-22T13:41:55;100191.59;;;24.63;nan
46408;BME280;32110;45.724;21.276;2023-05-22T13:44:20;100198.91;;;24.54;nan
46408;BME280;32110;45.724;21.276;2023-05-22T13:46:46;100167.84;;;24.56;nan
46408;BME280;32110;45.724;21.276;2023-05-22T13:49:11;100183.69;;;24.58;nan
46408;BME280;32110;45.724;21.276;2023-05-22T13:51:37;100180.34;;;24.61;nan
46408;BME280;32110;45.724;21.276;2023-05-22T13:54:03;100187.81;;;24.64;nan
46408;BME280;32110;45.724;21.276;2023-05-22T13:56:29;100224.41;;;24.56;nan
46408;BME280;32110;45.724;21.276;2023-05-22T13:58:54;100173.22;;;24.65;nan
46408;BME280;32110;45.724;21.276;2023-05-22T14:01:20;100186.38;;;24.67;nan
46408;BME280;32110;45.724;21.276;2023-05-22T14:03:45;100134.13;;;24.59;nan
46408;BME280;32110;45.724;21.276;2023-05-22T14:06:11;100155.84;;;24.54;nan
46408;BME280;32110;45.724;21.276;2023-05-22T14:08:36;100179.09;;;24.58;nan
46408;BME280;32110;45.724;21.276;2023-05-22T14:11:01;100170.56;;;24.56;nan
46408;BME280;32110;45.724;21.276;2023-05-22T14:13:27;100246.75;;;24.57;nan
46408;BME280;32110;45.724;21.276;2023-05-22T14:15:52;100197.75;;;24.63;nan
46408;BME280;32110;45.724;21.276;2023-05-22T14:18:18;100239.09;;;24.68;nan
46408;BME280;32110;45.724;21.276;2023-05-22T14:20:44;100209.63;;;24.71;nan
46408;BME280;32110;45.724;21.276;2023-05-22T14:23:11;100242.53;;;24.77;nan
46408;BME280;32110;45.724;21.276;2023-05-22T14:25:37;100229.19;;;24.51;nan
46408;BME280;32110;45.724;21.276;2023-05-22T14:28:07;100275.31;;;24.14;nan
46408;BME280;32110;45.724;21.276;2023-05-22T14:30:33;100220.59;;;23.84;nan
46408;BME280;32110;45.724;21.276;2023-05-22T14:32:58;100247.63;;;23.53;nan
46408;BME280;32110;45.724;21.276;2023-05-22T14:35:24;100221.50;;;23.19;nan
46408;BME280;32110;45.724;21.276;2023-05-22T14:37:52;100235.09;;;22.73;nan
46408;BME280;32110;45.724;21.276;2023-05-22T14:40:18;100225.09;;;22.25;nan
46408;BME280;32110;45.724;21.276;2023-05-22T14:45:09;100261.22;;;21.83;nan
46408;BME280;32110;45.724;21.276;2023-05-22T14:47:34;100244.22;;;21.65;nan
46408;BME280;32110;45.724;21.276;2023-05-22T14:50:00;100242.84;;;21.54;nan
46408;BME280;32110;45.724;21.276;2023-05-22T14:52:25;100244.47;;;21.41;nan
46408;BME280;32110;45.724;21.276;2023-05-22T14:54:50;100279.19;;;21.32;nan
46408;BME280;32110;45.724;21.276;2023-05-22T14:57:16;100251.72;;;21.27;nan
46408;BME280;32110;45.724;21.276;2023-05-22T14:59:41;100262.16;;;21.14;nan
46408;BME280;32110;45.724;21.276;2023-05-22T15:02:07;100247.66;;;21.01;nan
46408;BME280;32110;45.724;21.276;2023-05-22T15:04:32;100237.25;;;20.86;nan
46408;BME280;32110;45.724;21.276;2023-05-22T15:06:57;100246.94;;;20.68;nan
46408;BME280;32110;45.724;21.276;2023-05-22T15:09:23;100243.19;;;20.55;nan
46408;BME280;32110;45.724;21.276;2023-05-22T15:11:48;100239.38;;;20.43;nan
46408;BME280;32110;45.724;21.276;2023-05-22T15:14:15;100237.44;;;20.29;nan
46408;BME280;32110;45.724;21.276;2023-05-22T15:16:40;100221.88;;;20.17;nan
46408;BME280;32110;45.724;21.276;2023-05-22T15:19:06;100221.47;;;20.10;nan
46408;BME280;32110;45.724;21.276;2023-05-22T15:23:58;100227.06;;;19.95;nan
46408;BME280;32110;45.724;21.276;2023-05-22T15:26:23;100202.28;;;19.89;nan
46408;BME280;32110;45.724;21.276;2023-05-22T15:28:49;100202.09;;;19.86;nan
46408;BME280;32110;45.724;21.276;2023-05-22T15:31:14;100211.69;;;19.87;nan
46408;BME280;32110;45.724;21.276;2023-05-22T15:33:40;100191.41;;;19.86;nan
46408;BME280;32110;45.724;21.276;2023-05-22T15:36:06;100184.75;;;19.83;nan
46408;BME280;32110;45.724;21.276;2023-05-22T15:38:31;100186.06;;;19.86;nan
46408;BME280;32110;45.724;21.276;2023-05-22T15:40:57;100170.03;;;19.86;nan
46408;BME280;32110;45.724;21.276;2023-05-22T15:43:22;100219.13;;;19.90;nan
46408;BME280;32110;45.724;21.276;2023-05-22T15:48:14;100234.06;;;19.91;nan
46408;BME280;32110;45.724;21.276;2023-05-22T15:50:40;100156.56;;;19.91;nan
46408;BME280;32110;45.724;21.276;2023-05-22T15:55:31;100125.28;;;19.91;nan
46408;BME280;32110;45.724;21.276;2023-05-22T15:57:58;100207.06;;;19.92;nan
46408;BME280;32110;45.724;21.276;2023-05-22T16:00:25;100165.59;;;19.95;nan
46408;BME280;32110;45.724;21.276;2023-05-22T16:02:51;100173.63;;;19.95;nan
46408;BME280;32110;45.724;21.276;2023-05-22T16:07:42;100128.19;;;19.95;nan
46408;BME280;32110;45.724;21.276;2023-05-22T16:10:07;100156.06;;;19.89;nan
46408;BME280;32110;45.724;21.276;2023-05-22T16:12:33;100134.09;;;19.92;nan
46408;BME280;32110;45.724;21.276;2023-05-22T16:14:59;100169.66;;;19.92;nan
46408;BME280;32110;45.724;21.276;2023-05-22T16:19:49;100169.34;;;19.94;nan
46408;BME280;32110;45.724;21.276;2023-05-22T16:22:15;100149.06;;;19.93;nan
46408;BME280;32110;45.724;21.276;2023-05-22T16:24:41;100171.72;;;19.95;nan
46408;BME280;32110;45.724;21.276;2023-05-22T16:29:38;100145.69;;;20.01;nan
46408;BME280;32110;45.724;21.276;2023-05-22T16:32:03;100149.09;;;20.07;nan
46408;BME280;32110;45.724;21.276;2023-05-22T16:34:29;100110.84;;;20.06;nan
46408;BME280;32110;45.724;21.276;2023-05-22T16:36:57;100153.84;;;20.10;nan
46408;BME280;32110;45.724;21.276;2023-05-22T16:39:25;100146.59;;;20.10;nan
46408;BME280;32110;45.724;21.276;2023-05-22T16:41:50;100145.53;;;20.11;nan
46408;BME280;32110;45.724;21.276;2023-05-22T16:44:16;100175.00;;;20.06;nan
46408;BME280;32110;45.724;21.276;2023-05-22T16:46:42;100114.75;;;20.14;nan
46408;BME280;32110;45.724;21.276;2023-05-22T16:49:08;100119.78;;;20.02;nan
46408;BME280;32110;45.724;21.276;2023-05-22T16:51:35;100118.59;;;20.08;nan
46408;BME280;32110;45.724;21.276;2023-05-22T16:54:00;100138.19;;;20.03;nan
46408;BME280;32110;45.724;21.276;2023-05-22T16:56:25;100138.97;;;20.04;nan
46408;BME280;32110;45.724;21.276;2023-05-22T16:58:51;100134.44;;;20.04;nan
46408;BME280;32110;45.724;21.276;2023-05-22T17:01:16;100116.78;;;20.03;nan
46408;BME280;32110;45.724;21.276;2023-05-22T17:03:42;100136.50;;;20.07;nan
46408;BME280;32110;45.724;21.276;2023-05-22T17:06:07;100147.50;;;20.06;nan
46408;BME280;32110;45.724;21.276;2023-05-22T17:08:33;100114.13;;;20.03;nan
46408;BME280;32110;45.724;21.276;2023-05-22T17:10:58;100161.72;;;20.01;nan
46408;BME280;32110;45.724;21.276;2023-05-22T17:13:24;100097.19;;;19.94;nan
46408;BME280;32110;45.724;21.276;2023-05-22T17:15:49;100156.69;;;20.00;nan
46408;BME280;32110;45.724;21.276;2023-05-22T17:18:17;100129.25;;;19.94;nan
46408;BME280;32110;45.724;21.276;2023-05-22T17:20:45;100153.31;;;19.94;nan
46408;BME280;32110;45.724;21.276;2023-05-22T17:23:11;100148.03;;;19.89;nan
46408;BME280;32110;45.724;21.276;2023-05-22T17:28:02;100166.66;;;19.80;nan
46408;BME280;32110;45.724;21.276;2023-05-22T17:30:27;100176.50;;;19.80;nan
46408;BME280;32110;45.724;21.276;2023-05-22T17:32:53;100169.59;;;19.79;nan
46408;BME280;32110;45.724;21.276;2023-05-22T17:37:46;100185.72;;;19.73;nan
46408;BME280;32110;45.724;21.276;2023-05-22T17:40:12;100145.97;;;19.67;nan
46408;BME280;32110;45.724;21.276;2023-05-22T17:42:37;100191.25;;;19.58;nan
46408;BME280;32110;45.724;21.276;2023-05-22T17:45:03;100173.91;;;19.55;nan
46408;BME280;32110;45.724;21.276;2023-05-22T17:47:29;100180.72;;;19.48;nan
46408;BME280;32110;45.724;21.276;2023-05-22T17:49:54;100198.91;;;19.46;nan
46408;BME280;32110;45.724;21.276;2023-05-22T17:52:20;100250.00;;;19.39;nan
46408;BME280;32110;45.724;21.276;2023-05-22T17:54:45;100208.72;;;19.31;nan
46408;BME280;32110;45.724;21.276;2023-05-22T17:57:11;100199.63;;;19.13;nan
46408;BME280;32110;45.724;21.276;2023-05-22T17:59:36;100207.78;;;18.98;nan
46408;BME280;32110;45.724;21.276;2023-05-22T18:04:27;100200.59;;;18.99;nan
46408;BME280;32110;45.724;21.276;2023-05-22T18:06:52;100204.91;;;18.95;nan
46408;BME280;32110;45.724;21.276;2023-05-22T18:09:18;100213.97;;;18.94;nan
46408;BME280;32110;45.724;21.276;2023-05-22T18:14:09;100199.84;;;18.93;nan
46408;BME280;32110;45.724;21.276;2023-05-22T18:16:34;100251.91;;;18.90;nan
46408;BME280;32110;45.724;21.276;2023-05-22T18:19:00;100216.09;;;18.97;nan
46408;BME280;32110;45.724;21.276;2023-05-22T18:21:25;100218.25;;;18.95;nan
46408;BME280;32110;45.724;21.276;2023-05-22T18:23:51;100211.44;;;18.83;nan
46408;BME280;32110;45.724;21.276;2023-05-22T18:26:16;100279.00;;;18.79;nan
46408;BME280;32110;45.724;21.276;2023-05-22T18:31:07;100217.88;;;18.82;nan
46408;BME280;32110;45.724;21.276;2023-05-22T18:33:32;100242.41;;;18.84;nan
46408;BME280;32110;45.724;21.276;2023-05-22T18:35:58;100221.09;;;18.79;nan
46408;BME280;32110;45.724;21.276;2023-05-22T18:38:24;100231.75;;;18.79;nan
46408;BME280;32110;45.724;21.276;2023-05-22T18:43:18;100267.56;;;18.73;nan
46408;BME280;32110;45.724;21.276;2023-05-22T18:45:47;100337.06;;;18.53;nan
46408;BME280;32110;45.724;21.276;2023-05-22T18:48:13;100267.72;;;18.53;nan
46408;BME280;32110;45.724;21.276;2023-05-22T18:50:38;100257.31;;;18.56;nan
46408;BME280;32110;45.724;21.276;2023-05-22T18:53:03;100254.69;;;18.51;nan
46408;BME280;32110;45.724;21.276;2023-05-22T18:55:30;100251.50;;;18.49;nan
46408;BME280;32110;45.724;21.276;2023-05-22T18:57:56;100281.38;;;18.51;nan
46408;BME280;32110;45.724;21.276;2023-05-22T19:00:21;100290.53;;;18.40;nan
46408;BME280;32110;45.724;21.276;2023-05-22T19:02:47;100290.25;;;18.41;nan
46408;BME280;32110;45.724;21.276;2023-05-22T19:05:12;100275.56;;;18.44;nan
46408;BME280;32110;45.724;21.276;2023-05-22T19:07:38;100273.38;;;18.46;nan
46408;BME280;32110;45.724;21.276;2023-05-22T19:22:12;100330.69;;;18.14;nan
46408;BME280;32110;45.724;21.276;2023-05-22T19:36:45;100323.56;;;18.04;nan
46408;BME280;32110;45.724;21.276;2023-05-22T20:25:18;100298.88;;;17.23;nan
46408;BME280;32110;45.724;21.276;2023-05-22T20:32:36;100277.66;;;17.08;nan
46408;BME280;32110;45.724;21.276;2023-05-22T20:37:29;100354.25;;;17.11;nan
46408;BME280;32110;45.724;21.276;2023-05-22T20:39:59;100234.31;;;16.97;nan
46408;BME280;32110;45.724;21.276;2023-05-22T21:09:13;100306.16;;;16.56;nan
46408;BME280;32110;45.724;21.276;2023-05-22T22:09:48;100264.38;;;15.70;nan
